Time;durP1;ratioP1;P1;durP2;ratioP2;P2;SDS_P1;SDS_P2;PMS_P1;PMS_P2;Temp;Humidity;BMP_temperature;BMP_pressure;BME280_temperature;BME280_humidity;BME280_pressure;Samples;Min_cycle;Max_cycle;Signal;HPM_P1;HPM_P2
2023/07/18 00:00:40;;;;;;;0.70;0.57;;;17.60;73.60;;;;;;4998299;28;20065;-20
2023/07/18 00:03:06;;;;;;;0.77;0.60;;;17.50;73.60;;;;;;5029206;28;20491;-21
2023/07/18 00:05:33;;;;;;;1.88;0.73;;;17.50;73.80;;;;;;5015280;28;20294;-20
2023/07/18 00:07:59;;;;;;;1.25;0.68;;;17.40;73.90;;;;;;5027485;28;20064;-21
2023/07/18 00:10:27;;;;;;;1.67;0.80;;;17.30;74.00;;;;;;5010479;28;20156;-19
2023/07/18 00:12:52;;;;;;;1.08;0.70;;;17.30;74.10;;;;;;5031089;28;20040;-21
2023/07/18 00:15:18;;;;;;;1.00;0.70;;;17.30;74.20;;;;;;4985813;28;20205;-20
2023/07/18 00:17:44;;;;;;;1.67;0.70;;;17.20;74.20;;;;;;5031677;28;20028;-20
2023/07/18 00:20:17;;;;;;;0.93;0.60;;;17.20;74.30;;;;;;5030381;28;20021;-20
2023/07/18 00:22:50;;;;;;;0.80;0.47;;;17.20;74.50;;;;;;5017501;28;20475;-22
2023/07/18 00:25:19;;;;;;;1.70;0.70;;;17.10;74.40;;;;;;5018334;28;20044;-18
2023/07/18 00:27:45;;;;;;;0.82;0.60;;;17.10;74.50;;;;;;5016055;28;20021;-22
2023/07/18 00:30:12;;;;;;;0.60;0.60;;;17.00;74.60;;;;;;4984060;28;20029;-21
2023/07/18 00:32:39;;;;;;;1.27;0.77;;;17.00;74.70;;;;;;5029368;28;20150;-20
2023/07/18 00:35:05;;;;;;;2.00;0.67;;;16.90;74.70;;;;;;5031806;28;20473;-19
2023/07/18 00:37:32;;;;;;;1.50;0.70;;;16.80;74.70;;;;;;5016077;28;20702;-20
2023/07/18 00:39:58;;;;;;;1.38;0.70;;;16.80;74.90;;;;;;5020350;28;20029;-19
2023/07/18 00:42:24;;;;;;;1.35;0.70;;;16.80;75.10;;;;;;5016355;28;20696;-21
2023/07/18 00:44:50;;;;;;;1.67;0.70;;;16.70;75.20;;;;;;5022162;28;20671;-20
2023/07/18 00:47:17;;;;;;;1.23;0.60;;;16.70;75.20;;;;;;5007684;28;20772;-21
2023/07/18 00:49:45;;;;;;;1.23;0.70;;;16.70;75.40;;;;;;5024687;28;20025;-20
2023/07/18 00:52:11;;;;;;;1.02;0.70;;;16.70;75.40;;;;;;5023631;28;20029;-20
2023/07/18 00:54:38;;;;;;;1.00;0.90;;;16.60;75.40;;;;;;5045802;28;20095;-20
2023/07/18 00:57:06;;;;;;;1.57;0.80;;;16.60;75.50;;;;;;5017561;28;20528;-20
2023/07/18 00:59:33;;;;;;;1.75;0.60;;;16.60;75.50;;;;;;5046599;28;20041;-20
2023/07/18 01:01:59;;;;;;;1.35;0.60;;;16.50;75.40;;;;;;5001296;28;20025;-19
2023/07/18 01:04:24;;;;;;;1.38;0.60;;;16.50;75.40;;;;;;5027099;28;20393;-20
2023/07/18 01:06:52;;;;;;;2.65;0.80;;;16.50;75.40;;;;;;5024308;28;20104;-19
2023/07/18 01:09:19;;;;;;;1.30;0.80;;;16.50;75.50;;;;;;5012347;28;20427;-20
2023/07/18 01:11:45;;;;;;;1.27;0.68;;;16.50;75.50;;;;;;5018654;28;20335;-19
2023/07/18 01:14:10;;;;;;;1.17;0.60;;;16.40;75.50;;;;;;5021319;28;20067;-20
2023/07/18 01:16:36;;;;;;;2.10;0.73;;;16.40;75.60;;;;;;5003901;28;20087;-22
2023/07/18 01:19:02;;;;;;;1.20;0.65;;;16.40;75.60;;;;;;5030211;28;20475;-19
2023/07/18 01:21:28;;;;;;;2.13;0.80;;;16.40;75.60;;;;;;5026277;28;20648;-20
2023/07/18 01:23:53;;;;;;;1.85;0.80;;;16.30;75.70;;;;;;5019669;28;20025;-19
2023/07/18 01:26:23;;;;;;;1.43;0.70;;;16.30;75.80;;;;;;5031088;28;20037;-20
2023/07/18 01:28:49;;;;;;;1.60;0.70;;;16.20;75.70;;;;;;5018179;28;20032;-20
2023/07/18 01:31:15;;;;;;;2.92;0.80;;;16.20;75.90;;;;;;5049768;28;20035;-20
2023/07/18 01:33:44;;;;;;;1.43;0.70;;;16.10;75.90;;;;;;4999493;28;20546;-21
2023/07/18 01:36:09;;;;;;;1.20;0.80;;;16.10;75.90;;;;;;5030334;28;20353;-20
2023/07/18 01:38:35;;;;;;;1.00;0.65;;;16.10;76.00;;;;;;5004934;28;20110;-20
2023/07/18 01:41:02;;;;;;;1.60;0.80;;;16.00;76.00;;;;;;5011458;28;20094;-25
2023/07/18 01:43:28;;;;;;;1.50;1.00;;;16.00;76.10;;;;;;5015763;28;20094;-20
2023/07/18 01:46:00;;;;;;;1.40;0.80;;;16.00;76.10;;;;;;5016162;28;20438;-20
2023/07/18 01:48:26;;;;;;;0.95;0.80;;;16.00;76.40;;;;;;4999987;28;20025;-22
2023/07/18 01:50:52;;;;;;;1.27;0.90;;;15.90;76.10;;;;;;5024370;28;20021;-20
2023/07/18 01:53:18;;;;;;;0.82;0.70;;;15.90;76.20;;;;;;5028238;28;20029;-20
2023/07/18 01:55:44;;;;;;;1.33;0.80;;;15.90;76.30;;;;;;5010982;28;20461;-20
2023/07/18 01:58:10;;;;;;;1.25;0.80;;;15.80;76.30;;;;;;5062448;28;20037;-20
2023/07/18 02:00:36;;;;;;;1.15;0.80;;;15.80;76.30;;;;;;5008150;28;20425;-22
2023/07/18 02:03:02;;;;;;;1.40;0.80;;;15.80;76.30;;;;;;4999176;28;20651;-20
2023/07/18 02:05:32;;;;;;;1.08;0.70;;;15.80;76.40;;;;;;5033511;28;20040;-20
2023/07/18 02:07:59;;;;;;;1.27;0.60;;;15.70;76.40;;;;;;5030052;28;20147;-19
2023/07/18 02:10:25;;;;;;;1.60;0.80;;;15.70;76.40;;;;;;5036053;28;20064;-21
2023/07/18 02:12:54;;;;;;;0.80;0.80;;;15.60;76.40;;;;;;5022116;28;20130;-20
2023/07/18 02:15:21;;;;;;;1.07;0.70;;;15.60;76.60;;;;;;5021495;28;20089;-20
2023/07/18 02:17:47;;;;;;;0.90;0.70;;;15.60;76.70;;;;;;5017843;28;20035;-19
2023/07/18 02:20:14;;;;;;;2.03;0.70;;;15.50;77.30;;;;;;5008208;28;20031;-20
2023/07/18 02:22:42;;;;;;;1.65;0.80;;;15.50;76.60;;;;;;5013009;28;20067;-23
2023/07/18 02:25:09;;;;;;;1.00;0.75;;;15.40;76.70;;;;;;5029504;28;20380;-20
2023/07/18 02:27:37;;;;;;;0.80;0.60;;;15.40;76.80;;;;;;5019390;28;20060;-21
2023/07/18 02:30:08;;;;;;;1.50;0.90;;;15.40;76.90;;;;;;5017737;28;20021;-21
2023/07/18 02:32:34;;;;;;;1.67;0.80;;;15.30;76.80;;;;;;5013627;28;20021;-20
2023/07/18 02:35:00;;;;;;;1.15;0.73;;;15.30;77.00;;;;;;4999674;28;20123;-20
2023/07/18 02:37:26;;;;;;;1.05;0.70;;;15.30;77.00;;;;;;5029271;28;20071;-26
2023/07/18 02:39:53;;;;;;;1.20;0.73;;;15.20;77.00;;;;;;5026941;28;20033;-24
2023/07/18 02:42:19;;;;;;;0.73;0.70;;;15.20;77.00;;;;;;5022689;28;20117;-19
2023/07/18 02:44:47;;;;;;;1.73;0.80;;;15.20;77.20;;;;;;5016244;28;20021;-19
2023/07/18 02:47:13;;;;;;;0.82;0.70;;;15.20;77.30;;;;;;5015035;28;20021;-19
2023/07/18 02:49:39;;;;;;;1.00;0.70;;;15.20;77.30;;;;;;5003601;28;20040;-20
2023/07/18 02:52:06;;;;;;;1.10;0.80;;;15.10;77.20;;;;;;5026025;28;20026;-19
2023/07/18 02:54:32;;;;;;;1.45;0.80;;;15.10;77.30;;;;;;5031157;28;20446;-20
2023/07/18 02:56:58;;;;;;;1.30;0.70;;;15.10;77.40;;;;;;5026092;28;20040;-19
2023/07/18 02:59:24;;;;;;;0.97;0.70;;;15.00;77.40;;;;;;5017963;28;20527;-20
2023/07/18 03:01:50;;;;;;;0.63;0.60;;;15.00;77.50;;;;;;5015448;28;20329;-20
2023/07/18 03:04:16;;;;;;;1.23;0.73;;;15.00;77.50;;;;;;5018083;28;20058;-20
2023/07/18 03:06:43;;;;;;;0.80;0.60;;;14.90;77.50;;;;;;4997591;28;20048;-21
2023/07/18 03:09:09;;;;;;;0.88;0.60;;;14.90;77.50;;;;;;5059555;28;20088;-20
2023/07/18 03:11:35;;;;;;;1.07;0.50;;;14.90;77.70;;;;;;5025952;28;20363;-21
2023/07/18 03:14:01;;;;;;;0.70;0.70;;;14.90;77.70;;;;;;5016405;28;20128;-19
2023/07/18 03:16:26;;;;;;;0.87;0.63;;;14.90;77.70;;;;;;5024524;28;20399;-22
2023/07/18 03:18:54;;;;;;;1.93;0.80;;;14.80;77.70;;;;;;5013162;28;20505;-22
2023/07/18 03:21:20;;;;;;;1.13;0.70;;;14.80;77.80;;;;;;4996337;28;20055;-21
2023/07/18 03:23:45;;;;;;;1.07;0.87;;;14.80;77.80;;;;;;5028271;28;20028;-20
2023/07/18 03:26:11;;;;;;;0.90;0.80;;;14.80;77.80;;;;;;5031202;28;20021;-20
2023/07/18 03:28:46;;;;;;;1.48;0.70;;;14.70;77.90;;;;;;5022963;28;20540;-21
2023/07/18 03:31:12;;;;;;;1.63;0.70;;;14.70;78.40;;;;;;5047584;28;20030;-20
2023/07/18 03:33:37;;;;;;;1.30;0.80;;;14.70;78.00;;;;;;5020121;28;20087;-23
2023/07/18 03:36:05;;;;;;;0.90;0.60;;;14.70;78.10;;;;;;5024123;28;20082;-20
2023/07/18 03:38:31;;;;;;;1.10;0.60;;;14.70;78.10;;;;;;4998278;28;20032;-19
2023/07/18 03:40:57;;;;;;;0.88;0.80;;;14.60;78.20;;;;;;5029741;28;20362;-20
2023/07/18 03:43:23;;;;;;;1.10;0.70;;;14.60;78.40;;;;;;5028892;28;20021;-20
2023/07/18 03:45:50;;;;;;;1.40;0.90;;;14.60;78.30;;;;;;5028633;28;20349;-19
2023/07/18 03:48:16;;;;;;;1.00;0.70;;;14.60;78.40;;;;;;5017720;28;20059;-19
2023/07/18 03:50:41;;;;;;;0.67;0.60;;;14.50;78.40;;;;;;5009649;28;20262;-21
2023/07/18 03:53:07;;;;;;;1.30;0.80;;;14.50;78.40;;;;;;4999462;28;20026;-20
2023/07/18 03:55:32;;;;;;;0.70;0.70;;;14.50;78.50;;;;;;5028625;28;20029;-22
2023/07/18 03:57:58;;;;;;;0.90;0.70;;;14.50;78.50;;;;;;5026913;28;20237;-20
2023/07/18 04:00:24;;;;;;;1.50;0.80;;;14.50;78.60;;;;;;5029454;28;20491;-21
2023/07/18 04:02:50;;;;;;;1.30;0.90;;;14.50;78.60;;;;;;5007037;28;20763;-20
2023/07/18 04:05:17;;;;;;;0.80;0.77;;;14.50;78.70;;;;;;5022528;28;20384;-20
2023/07/18 04:07:44;;;;;;;1.00;0.70;;;14.50;78.70;;;;;;4997701;28;20111;-20
2023/07/18 04:10:11;;;;;;;1.42;0.75;;;14.50;78.70;;;;;;5038258;28;20033;-22
2023/07/18 04:12:38;;;;;;;1.20;0.70;;;14.40;78.70;;;;;;5033387;28;20376;-21
2023/07/18 04:15:06;;;;;;;1.83;0.80;;;14.40;78.80;;;;;;5048228;28;20029;-21
2023/07/18 04:17:32;;;;;;;0.80;0.80;;;14.40;78.90;;;;;;5016297;28;20605;-20
2023/07/18 04:20:01;;;;;;;1.30;0.77;;;14.40;78.90;;;;;;5021966;28;20288;-20
2023/07/18 04:22:29;;;;;;;1.27;0.80;;;14.50;79.00;;;;;;5030337;28;20044;-22
2023/07/18 04:24:55;;;;;;;1.73;0.70;;;14.40;79.00;;;;;;5005419;28;20017;-20
2023/07/18 04:27:22;;;;;;;1.25;0.68;;;14.40;79.10;;;;;;5032849;28;20040;-23
2023/07/18 04:29:50;;;;;;;2.13;0.80;;;14.40;79.20;;;;;;5031494;28;20025;-20
2023/07/18 04:32:22;;;;;;;1.90;0.57;;;14.40;79.40;;;;;;5016933;28;20479;-23
2023/07/18 04:34:48;;;;;;;1.38;0.73;;;14.40;79.40;;;;;;5014845;28;20423;-19
2023/07/18 04:37:14;;;;;;;1.53;0.90;;;14.40;79.40;;;;;;5020982;28;20021;-19
2023/07/18 04:39:40;;;;;;;1.38;0.80;;;14.40;79.40;;;;;;5001131;28;20033;-23
2023/07/18 04:42:06;;;;;;;2.20;0.80;;;14.40;79.50;;;;;;5033201;28;20033;-20
2023/07/18 04:44:33;;;;;;;1.35;0.70;;;14.40;79.60;;;;;;5030718;28;21185;-20
2023/07/18 04:46:59;;;;;;;1.65;0.70;;;14.40;79.70;;;;;;5032193;28;20229;-20
2023/07/18 04:49:25;;;;;;;1.30;0.80;;;14.50;79.90;;;;;;5015470;28;20128;-20
2023/07/18 04:51:51;;;;;;;1.05;0.80;;;14.50;79.90;;;;;;5019957;28;20280;-19
2023/07/18 04:54:17;;;;;;;1.90;0.70;;;14.50;80.00;;;;;;5035519;28;20079;-19
2023/07/18 04:56:43;;;;;;;1.20;0.70;;;14.50;80.10;;;;;;5002190;28;20044;-20
2023/07/18 04:59:09;;;;;;;1.15;0.82;;;14.50;80.20;;;;;;5028206;28;20372;-22
2023/07/18 05:01:36;;;;;;;1.10;0.77;;;14.60;80.40;;;;;;5026356;28;20017;-20
2023/07/18 05:04:02;;;;;;;1.67;0.77;;;14.60;80.40;;;;;;5018136;28;20026;-21
2023/07/18 05:06:28;;;;;;;1.83;0.90;;;14.60;80.50;;;;;;5012409;28;20037;-24
2023/07/18 05:08:54;;;;;;;1.20;0.80;;;14.60;80.50;;;;;;5010429;28;20036;-20
2023/07/18 05:11:20;;;;;;;2.05;0.93;;;14.70;80.70;;;;;;4999950;28;20033;-20
2023/07/18 05:13:45;;;;;;;0.80;0.80;;;14.70;80.80;;;;;;5034342;28;20033;-19
2023/07/18 05:16:11;;;;;;;1.10;0.70;;;14.70;81.60;;;;;;5029083;28;20275;-20
2023/07/18 05:18:37;;;;;;;1.63;0.90;;;14.70;81.10;;;;;;5028890;28;20309;-18
2023/07/18 05:21:02;;;;;;;2.20;0.90;;;14.80;81.20;;;;;;5019445;28;20659;-20
2023/07/18 05:23:28;;;;;;;1.97;0.60;;;14.80;81.30;;;;;;5013936;28;20036;-19
2023/07/18 05:25:57;;;;;;;1.15;0.80;;;14.90;81.40;;;;;;4993941;28;20028;-20
2023/07/18 05:28:23;;;;;;;1.58;0.70;;;14.90;81.50;;;;;;5046373;28;20055;-22
2023/07/18 05:30:49;;;;;;;1.30;0.70;;;15.00;81.60;;;;;;5031934;28;20033;-19
2023/07/18 05:33:14;;;;;;;1.13;0.70;;;15.10;81.80;;;;;;5010487;28;20090;-19
2023/07/18 05:35:40;;;;;;;1.08;0.60;;;15.10;81.90;;;;;;5014469;28;20867;-20
2023/07/18 05:38:06;;;;;;;2.30;0.80;;;15.20;82.00;;;;;;5026115;28;20045;-24
2023/07/18 05:40:32;;;;;;;1.77;0.98;;;15.30;82.10;;;;;;5000559;28;20252;-19
2023/07/18 05:42:58;;;;;;;2.30;0.80;;;15.30;82.20;;;;;;5002505;28;20037;-23
2023/07/18 05:45:24;;;;;;;1.63;0.80;;;15.40;82.40;;;;;;5056506;28;20029;-21
2023/07/18 05:47:50;;;;;;;1.13;0.77;;;15.40;82.50;;;;;;5027299;28;20047;-20
2023/07/18 05:50:17;;;;;;;3.13;0.73;;;15.60;82.60;;;;;;5043720;28;20046;-20
2023/07/18 05:52:43;;;;;;;1.92;0.70;;;15.60;82.70;;;;;;5014216;28;20383;-21
2023/07/18 05:55:09;;;;;;;2.20;0.87;;;15.70;82.70;;;;;;5046454;28;20028;-20
2023/07/18 05:57:34;;;;;;;1.70;0.90;;;15.80;83.00;;;;;;4987518;28;20037;-20
2023/07/18 06:00:01;;;;;;;1.53;0.90;;;15.80;83.00;;;;;;5027045;28;20079;-21
2023/07/18 06:02:27;;;;;;;2.13;0.73;;;15.90;83.20;;;;;;5028792;28;20029;-20
2023/07/18 06:04:53;;;;;;;2.03;1.20;;;16.00;83.30;;;;;;5025535;28;20037;-21
2023/07/18 06:07:18;;;;;;;2.03;0.90;;;16.10;83.40;;;;;;5017722;28;20387;-21
2023/07/18 06:09:44;;;;;;;1.50;0.80;;;16.20;83.20;;;;;;5011799;28;20036;-21
2023/07/18 06:12:11;;;;;;;1.52;0.75;;;16.30;83.30;;;;;;5014367;28;20055;-20
2023/07/18 06:14:37;;;;;;;0.95;0.80;;;16.40;83.40;;;;;;5006631;28;20024;-21
2023/07/18 06:17:03;;;;;;;1.90;0.80;;;16.50;83.50;;;;;;5030871;28;20499;-21
2023/07/18 06:19:29;;;;;;;1.30;0.80;;;16.60;84.20;;;;;;5041914;28;20128;-20
2023/07/18 06:21:55;;;;;;;1.95;0.90;;;16.60;83.40;;;;;;5012805;28;20226;-20
2023/07/18 06:24:20;;;;;;;1.43;0.70;;;16.70;83.50;;;;;;5027547;28;20627;-22
2023/07/18 06:26:49;;;;;;;2.28;0.75;;;16.80;83.50;;;;;;5006451;28;20020;-21
2023/07/18 06:29:17;;;;;;;1.17;0.80;;;16.90;83.70;;;;;;5017091;28;20865;-21
2023/07/18 06:31:44;;;;;;;2.90;0.80;;;17.00;83.60;;;;;;5026685;28;20399;-21
2023/07/18 06:34:10;;;;;;;1.75;0.70;;;17.10;84.50;;;;;;5063768;28;20029;-19
2023/07/18 06:36:35;;;;;;;2.05;0.90;;;17.20;83.70;;;;;;5030557;28;20033;-22
2023/07/18 06:39:01;;;;;;;1.90;0.67;;;17.30;83.80;;;;;;5016615;28;20235;-20
2023/07/18 06:41:26;;;;;;;2.45;0.70;;;17.40;83.70;;;;;;5005057;28;20037;-20
2023/07/18 06:43:52;;;;;;;1.23;0.70;;;17.50;83.80;;;;;;4989610;28;21270;-21
2023/07/18 06:46:18;;;;;;;1.80;0.80;;;17.60;83.90;;;;;;5026511;28;20080;-22
2023/07/18 06:48:44;;;;;;;1.47;0.80;;;17.70;83.70;;;;;;5022229;28;20047;-23
2023/07/18 06:51:11;;;;;;;1.88;0.75;;;17.80;83.70;;;;;;5043979;28;20020;-19
2023/07/18 06:53:36;;;;;;;1.40;0.80;;;17.90;83.60;;;;;;5019482;28;20052;-21
2023/07/18 06:56:02;;;;;;;2.47;0.90;;;18.00;83.60;;;;;;5010217;28;20321;-20
2023/07/18 06:58:28;;;;;;;1.15;0.60;;;18.00;83.50;;;;;;5014195;28;20206;-21
2023/07/18 07:00:53;;;;;;;1.53;0.70;;;18.10;83.40;;;;;;5002840;28;20706;-20
2023/07/18 07:03:19;;;;;;;2.08;0.90;;;18.20;83.40;;;;;;5033424;28;20032;-20
2023/07/18 07:05:45;;;;;;;2.07;0.80;;;18.30;83.20;;;;;;5023561;28;20021;-20
2023/07/18 07:08:12;;;;;;;2.55;0.77;;;18.40;83.00;;;;;;5028881;28;20067;-20
2023/07/18 07:10:42;;;;;;;1.95;0.80;;;18.50;82.80;;;;;;5009977;28;20033;-21
2023/07/18 07:13:08;;;;;;;0.97;0.50;;;18.60;82.50;;;;;;5013144;28;20025;-20
2023/07/18 07:15:35;;;;;;;2.15;0.68;;;18.60;82.50;;;;;;4994930;28;20037;-21
2023/07/18 07:18:05;;;;;;;1.60;0.60;;;18.70;82.50;;;;;;5024669;28;20029;-21
2023/07/18 07:20:31;;;;;;;1.75;0.70;;;18.80;82.40;;;;;;5025719;28;20037;-20
2023/07/18 07:22:57;;;;;;;1.00;0.70;;;18.90;82.30;;;;;;5026157;28;20145;-20
2023/07/18 07:25:27;;;;;;;1.20;0.70;;;19.00;82.30;;;;;;5028001;28;20122;-20
2023/07/18 07:27:52;;;;;;;1.55;0.60;;;19.10;82.00;;;;;;5040514;28;20514;-20
2023/07/18 07:30:18;;;;;;;1.13;0.67;;;19.20;82.40;;;;;;4990552;28;20287;-19
2023/07/18 07:32:47;;;;;;;1.17;0.60;;;19.30;82.40;;;;;;5024675;28;20116;-19
2023/07/18 07:35:13;;;;;;;1.45;0.70;;;19.40;82.10;;;;;;5023316;28;20033;-20
2023/07/18 07:37:40;;;;;;;2.55;0.70;;;19.50;81.90;;;;;;5009433;28;20083;-21
2023/07/18 07:40:09;;;;;;;2.97;0.53;;;19.50;81.80;;;;;;5010205;28;20490;-19
2023/07/18 07:42:36;;;;;;;1.75;0.60;;;19.70;81.60;;;;;;5025877;28;20461;-20
2023/07/18 07:45:01;;;;;;;1.85;0.60;;;19.80;81.60;;;;;;4982442;28;20025;-20
2023/07/18 07:47:27;;;;;;;1.87;0.60;;;19.90;81.50;;;;;;5029133;28;20490;-19
2023/07/18 07:49:53;;;;;;;0.70;0.52;;;20.10;81.70;;;;;;5027525;28;20033;-21
2023/07/18 07:52:19;;;;;;;0.80;0.50;;;20.20;81.50;;;;;;5027769;28;20208;-20
2023/07/18 07:54:44;;;;;;;0.77;0.47;;;20.30;81.80;;;;;;5054979;28;20730;-21
2023/07/18 07:57:10;;;;;;;1.33;0.50;;;20.50;81.80;;;;;;5012551;28;20025;-19
2023/07/18 07:59:36;;;;;;;1.00;0.50;;;20.70;81.60;;;;;;5015364;28;20120;-19
2023/07/18 08:02:03;;;;;;;0.65;0.43;;;20.80;81.80;;;;;;4995212;28;21641;-19
2023/07/18 08:04:28;;;;;;;1.23;0.70;;;21.00;81.90;;;;;;5028757;28;20033;-20
2023/07/18 08:06:55;;;;;;;1.17;0.60;;;21.30;82.20;;;;;;5022452;28;20021;-20
2023/07/18 08:09:22;;;;;;;1.25;0.50;;;21.50;82.80;;;;;;5026468;28;20195;-20
2023/07/18 08:11:48;;;;;;;0.95;0.60;;;21.70;82.60;;;;;;5018076;28;20017;-20
2023/07/18 08:14:15;;;;;;;1.58;0.60;;;22.00;82.30;;;;;;5013018;28;20144;-19
2023/07/18 08:16:41;;;;;;;1.17;0.63;;;22.30;82.20;;;;;;4989236;28;20625;-19
2023/07/18 08:19:07;;;;;;;1.00;0.50;;;22.50;81.40;;;;;;5023549;28;20041;-20
2023/07/18 08:21:34;;;;;;;0.95;0.55;;;22.80;81.20;;;;;;5027403;28;20041;-22
2023/07/18 08:24:00;;;;;;;1.08;0.50;;;23.00;81.00;;;;;;5026781;28;20083;-19
2023/07/18 08:26:25;;;;;;;0.73;0.60;;;23.20;80.00;;;;;;5018363;28;20049;-18
2023/07/18 08:28:51;;;;;;;0.67;0.53;;;23.40;78.70;;;;;;5024764;28;20025;-21
2023/07/18 08:31:17;;;;;;;0.77;0.60;;;23.50;77.80;;;;;;4989904;28;21250;-20
2023/07/18 08:33:44;;;;;;;1.07;0.60;;;23.60;77.40;;;;;;5032084;28;20060;-22
2023/07/18 08:36:10;;;;;;;0.82;0.60;;;23.70;77.20;;;;;;5027063;28;20803;-23
2023/07/18 08:38:36;;;;;;;1.05;0.60;;;23.80;77.50;;;;;;5016689;28;20037;-19
2023/07/18 08:41:01;;;;;;;1.60;0.68;;;24.00;78.00;;;;;;5014259;28;20357;-19
2023/07/18 08:43:27;;;;;;;1.00;0.60;;;24.10;77.40;;;;;;5012408;28;20021;-21
2023/07/18 08:45:54;;;;;;;1.38;0.60;;;24.20;76.70;;;;;;4978095;28;20029;-19
2023/07/18 08:48:20;;;;;;;2.50;0.70;;;24.40;75.60;;;;;;5005054;28;20123;-20
2023/07/18 08:50:46;;;;;;;3.35;0.50;;;24.40;74.70;;;;;;5018705;28;20737;-20
2023/07/18 08:53:11;;;;;;;1.35;0.57;;;24.30;73.80;;;;;;5034293;28;20036;-20
2023/07/18 08:55:37;;;;;;;1.20;0.57;;;24.20;73.10;;;;;;5036588;28;20032;-22
2023/07/18 08:58:04;;;;;;;0.68;0.50;;;24.20;72.90;;;;;;5023092;28;20025;-19
2023/07/18 09:00:29;;;;;;;0.98;0.50;;;24.10;72.70;;;;;;5015479;28;21020;-19
2023/07/18 09:02:55;;;;;;;1.13;0.50;;;24.00;72.70;;;;;;5004738;28;20032;-20
2023/07/18 09:05:31;;;;;;;1.08;0.50;;;24.00;73.20;;;;;;5030482;28;20036;-20
2023/07/18 09:07:58;;;;;;;1.13;0.60;;;24.00;71.80;;;;;;5001471;28;20280;-20
2023/07/18 09:10:24;;;;;;;0.50;0.50;;;24.00;73.50;;;;;;5029290;28;20538;-19
2023/07/18 09:12:50;;;;;;;0.75;0.65;;;24.10;73.30;;;;;;5032690;28;20371;-20
2023/07/18 09:15:21;;;;;;;0.63;0.50;;;24.10;72.80;;;;;;5016239;28;20033;-19
2023/07/18 09:17:57;;;;;;;2.15;0.77;;;24.10;71.30;;;;;;4982774;28;26078;-19
2023/07/18 09:20:25;;;;;;;0.70;0.50;;;24.20;70.30;;;;;;5027561;28;20074;-20
2023/07/18 09:22:57;;;;;;;1.33;0.60;;;24.20;71.60;;;;;;5015756;28;21591;-19
2023/07/18 09:25:24;;;;;;;1.45;0.60;;;24.10;70.60;;;;;;5056526;28;20163;-20
2023/07/18 09:27:51;;;;;;;0.68;0.50;;;24.00;71.10;;;;;;5031546;28;20524;-21
2023/07/18 09:30:22;;;;;;;1.45;0.50;;;24.00;71.30;;;;;;5004611;28;20123;-20
2023/07/18 09:32:53;;;;;;;0.40;0.40;;;24.00;70.20;;;;;;4985690;28;20248;-19
2023/07/18 09:35:18;;;;;;;0.60;0.40;;;23.90;70.40;;;;;;5026142;28;20041;-21
2023/07/18 09:37:48;;;;;;;1.63;0.40;;;23.90;70.80;;;;;;5024178;28;20362;-20
2023/07/18 09:40:18;;;;;;;1.23;0.50;;;23.90;69.90;;;;;;5031382;28;20049;-22
2023/07/18 09:42:45;;;;;;;0.98;0.55;;;24.00;71.00;;;;;;5003936;28;20384;-20
2023/07/18 09:45:16;;;;;;;0.47;0.40;;;24.00;71.50;;;;;;5010212;28;20531;-20
2023/07/18 09:47:42;;;;;;;0.68;0.55;;;24.10;71.60;;;;;;5010492;28;20372;-21
2023/07/18 09:50:13;;;;;;;1.48;0.50;;;24.30;72.60;;;;;;5002674;28;20129;-19
2023/07/18 09:52:49;;;;;;;0.83;0.50;;;24.50;72.20;;;;;;5028591;28;20750;-19
2023/07/18 09:55:21;;;;;;;0.50;0.50;;;24.80;71.70;;;;;;5032563;28;20107;-18
2023/07/18 09:57:49;;;;;;;0.65;0.52;;;25.10;72.70;;;;;;5044134;28;20134;-19
2023/07/18 10:00:15;;;;;;;0.95;0.60;;;25.40;72.10;;;;;;4994111;28;20033;-20
2023/07/18 10:02:42;;;;;;;1.10;0.50;;;25.60;71.60;;;;;;5002482;28;20631;-19
2023/07/18 10:05:14;;;;;;;0.50;0.50;;;25.70;70.30;;;;;;4989545;28;20040;-20
2023/07/18 10:07:40;;;;;;;1.98;0.60;;;25.70;69.40;;;;;;5026916;28;20040;-20
2023/07/18 10:10:08;;;;;;;0.40;0.40;;;25.70;68.80;;;;;;5030627;28;20029;-19
2023/07/18 10:12:56;;;;;;;1.27;0.60;;;25.70;68.00;;;;;;5024007;28;20363;-20
2023/07/18 10:15:22;;;;;;;0.90;0.50;;;25.70;67.00;;;;;;5016262;28;20052;-19
2023/07/18 10:17:49;;;;;;;1.30;0.50;;;25.70;68.30;;;;;;5017361;28;20123;-19
2023/07/18 10:20:22;;;;;;;0.73;0.47;;;25.70;68.30;;;;;;4994525;28;20030;-23
2023/07/18 10:22:57;;;;;;;1.55;0.60;;;25.80;68.90;;;;;;5019800;28;20418;-19
2023/07/18 10:25:25;;;;;;;0.50;0.45;;;26.00;68.30;;;;;;5025482;28;20026;-20
2023/07/18 10:27:51;;;;;;;1.30;0.50;;;26.30;72.00;;;;;;5028052;28;20025;-19
2023/07/18 10:30:21;;;;;;;0.70;0.50;;;26.70;73.60;;;;;;5015730;28;20095;-21
2023/07/18 10:32:57;;;;;;;0.88;0.60;;;27.20;72.80;;;;;;5028763;28;20036;-19
2023/07/18 10:35:25;;;;;;;1.40;0.68;;;27.80;71.90;;;;;;4991933;28;20036;-26
2023/07/18 10:37:54;;;;;;;0.80;0.77;;;28.30;74.60;;;;;;5022420;28;20135;-19
2023/07/18 10:40:39;;;;;;;1.55;0.80;;;28.80;73.40;;;;;;5027317;28;20090;-20
2023/07/18 10:43:18;;;;;;;0.90;0.80;;;29.40;67.70;;;;;;5053681;28;20021;-20
2023/07/18 10:45:44;;;;;;;0.98;0.70;;;29.80;67.60;;;;;;5001101;28;20110;-20
2023/07/18 10:48:13;;;;;;;1.35;0.80;;;30.10;70.40;;;;;;5026392;28;20751;-20
2023/07/18 10:50:40;;;;;;;0.93;0.60;;;30.50;68.20;;;;;;4998949;28;20036;-23
2023/07/18 10:53:10;;;;;;;1.80;0.80;;;30.80;69.70;;;;;;5022920;28;20028;-22
2023/07/18 10:55:36;;;;;;;1.33;0.80;;;31.10;67.50;;;;;;5031562;28;20021;-21
2023/07/18 10:58:02;;;;;;;1.27;0.70;;;31.50;68.50;;;;;;5023117;28;20581;-20
2023/07/18 11:00:29;;;;;;;1.10;1.00;;;31.80;67.60;;;;;;5016960;28;20029;-19
2023/07/18 11:02:55;;;;;;;1.38;1.00;;;32.10;66.20;;;;;;5020423;28;20166;-18
2023/07/18 11:05:21;;;;;;;1.50;1.08;;;32.30;64.80;;;;;;4994648;28;20452;-19
2023/07/18 11:07:49;;;;;;;1.10;0.97;;;32.40;63.90;;;;;;5041142;28;20442;-20
2023/07/18 11:10:15;;;;;;;1.58;1.05;;;32.60;62.80;;;;;;5045016;28;20364;-22
2023/07/18 11:12:42;;;;;;;1.13;1.00;;;32.70;61.80;;;;;;5018141;28;20040;-22
2023/07/18 11:15:11;;;;;;;1.90;1.02;;;32.80;61.80;;;;;;5034298;28;20036;-19
2023/07/18 11:17:42;;;;;;;1.10;1.00;;;32.90;60.20;;;;;;5033136;28;20425;-21
2023/07/18 11:20:10;;;;;;;1.13;0.90;;;33.10;60.70;;;;;;5033882;28;20504;-20
2023/07/18 11:22:36;;;;;;;1.17;1.08;;;33.20;60.70;;;;;;4992679;28;21119;-20
2023/07/18 11:25:04;;;;;;;0.98;0.93;;;33.40;60.10;;;;;;5023520;28;20734;-19
2023/07/18 11:27:31;;;;;;;1.20;0.93;;;33.60;60.10;;;;;;5028683;28;20044;-19
2023/07/18 11:29:59;;;;;;;1.13;1.00;;;33.70;57.70;;;;;;5024948;28;20154;-21
2023/07/18 11:32:47;;;;;;;0.90;0.90;;;33.80;57.70;;;;;;5014565;28;20398;-21
2023/07/18 11:35:23;;;;;;;1.13;1.02;;;33.90;54.40;;;;;;5027990;28;20857;-22
2023/07/18 11:37:53;;;;;;;1.30;1.20;;;34.00;55.90;;;;;;4995283;28;20041;-23
2023/07/18 11:40:25;;;;;;;1.67;1.30;;;34.10;56.70;;;;;;5027396;28;20648;-19
2023/07/18 11:43:01;;;;;;;1.52;1.42;;;34.30;56.20;;;;;;5058056;28;20386;-23
2023/07/18 11:45:31;;;;;;;1.23;1.10;;;34.50;54.90;;;;;;5028179;28;20068;-19
2023/07/18 11:47:58;;;;;;;1.70;0.80;;;34.60;55.60;;;;;;5014095;28;20317;-18
2023/07/18 11:50:29;;;;;;;1.38;1.02;;;34.60;54.10;;;;;;5015703;28;20527;-22
2023/07/18 11:53:02;;;;;;;1.17;0.90;;;34.50;52.00;;;;;;4998183;28;20998;-19
2023/07/18 11:55:30;;;;;;;1.27;1.10;;;34.40;53.20;;;;;;5026691;28;20589;-20
2023/07/18 11:57:56;;;;;;;1.33;0.90;;;34.40;53.60;;;;;;5048093;28;20464;-20
2023/07/18 12:00:22;;;;;;;0.90;0.73;;;34.40;53.70;;;;;;5018952;28;20120;-20
2023/07/18 12:02:48;;;;;;;1.05;0.93;;;34.50;53.50;;;;;;5003188;28;20255;-20
2023/07/18 12:05:15;;;;;;;2.83;1.23;;;34.60;53.70;;;;;;5039085;28;20367;-19
2023/07/18 12:07:46;;;;;;;1.48;1.30;;;34.70;52.70;;;;;;5018476;28;20384;-21
2023/07/18 12:10:12;;;;;;;1.47;1.30;;;34.80;51.90;;;;;;5026749;28;20025;-19
2023/07/18 12:12:41;;;;;;;2.03;1.30;;;34.90;51.70;;;;;;5014288;28;20028;-20
2023/07/18 12:15:08;;;;;;;1.40;1.13;;;35.00;51.00;;;;;;5020429;28;20220;-19
2023/07/18 12:17:34;;;;;;;1.55;1.30;;;35.00;51.20;;;;;;5014024;28;20075;-20
2023/07/18 12:20:00;;;;;;;1.67;1.30;;;35.10;50.60;;;;;;5025030;28;20241;-21
2023/07/18 12:22:26;;;;;;;1.70;0.90;;;35.10;50.20;;;;;;5028720;28;20105;-23
2023/07/18 12:24:51;;;;;;;1.83;1.27;;;35.20;50.10;;;;;;4998180;28;20059;-22
2023/07/18 12:27:17;;;;;;;1.40;1.30;;;35.20;49.50;;;;;;5024185;28;20106;-20
2023/07/18 12:29:44;;;;;;;2.08;1.15;;;35.30;48.90;;;;;;5031574;28;20041;-21
2023/07/18 12:32:10;;;;;;;1.35;1.23;;;35.30;48.30;;;;;;5009818;28;20102;-21
2023/07/18 12:34:40;;;;;;;1.37;1.10;;;35.30;48.20;;;;;;5031645;28;20029;-21
2023/07/18 12:37:06;;;;;;;1.60;1.20;;;35.30;47.60;;;;;;5017965;28;20222;-20
2023/07/18 12:39:32;;;;;;;1.10;1.00;;;35.30;48.20;;;;;;5001834;28;20387;-20
2023/07/18 12:41:58;;;;;;;1.87;1.30;;;35.30;48.40;;;;;;5029750;28;20025;-20
2023/07/18 12:44:40;;;;;;;1.20;1.10;;;35.30;48.10;;;;;;5029286;28;20772;-19
2023/07/18 12:47:07;;;;;;;1.95;1.40;;;35.40;46.30;;;;;;5030891;28;20339;-19